createdAt,value
2023-02-13T00:00:03.580Z,79.31
2023-02-13T00:01:03.567Z,79.31
2023-02-13T00:02:03.585Z,79.41
2023-02-13T00:03:03.528Z,79.12
2023-02-13T00:04:03.508Z,78.93
2023-02-13T00:05:03.492Z,78.93
2023-02-13T00:06:03.479Z,78.93
2023-02-13T00:07:03.460Z,79.03
2023-02-13T00:08:03.446Z,79.03
2023-02-13T00:09:05.159Z,79.41
2023-02-13T00:10:03.402Z,79.31
2023-02-13T00:11:03.391Z,79.31
2023-02-13T00:12:03.369Z,79.22
2023-02-13T00:13:03.354Z,79.31
2023-02-13T00:14:03.342Z,79.50
2023-02-13T00:15:03.320Z,79.22
2023-02-13T00:16:03.423Z,79.22
2023-02-13T00:17:03.287Z,79.22
2023-02-13T00:18:03.289Z,78.74
2023-02-13T00:19:03.255Z,78.93
2023-02-13T00:20:03.248Z,78.93
2023-02-13T00:21:03.226Z,78.93
2023-02-13T00:22:03.198Z,79.03
2023-02-13T00:23:03.210Z,78.93
2023-02-13T00:24:03.187Z,79.12
2023-02-13T00:25:03.154Z,79.41
2023-02-13T00:26:03.139Z,79.31
2023-02-13T00:27:03.115Z,79.31
2023-02-13T00:28:03.165Z,79.22
2023-02-13T00:29:03.106Z,79.31
2023-02-13T00:30:03.064Z,79.31
2023-02-13T00:31:03.157Z,79.03
2023-02-13T00:32:03.134Z,79.22
2023-02-13T00:33:03.016Z,79.31
2023-02-13T00:34:02.992Z,79.03
2023-02-13T00:35:02.992Z,79.12
2023-02-13T00:36:02.955Z,79.60
2023-02-13T00:37:02.940Z,79.60
2023-02-13T00:38:02.917Z,78.89
2023-02-13T00:39:02.900Z,79.55
2023-02-13T00:40:02.888Z,79.65
2023-02-13T00:41:02.866Z,79.36
2023-02-13T00:42:02.847Z,79.46
2023-02-13T00:43:02.833Z,79.36
2023-02-13T00:44:02.818Z,79.46
2023-02-13T00:45:02.809Z,79.84
2023-02-13T00:46:02.801Z,80.22
2023-02-13T00:47:02.788Z,80.13
2023-02-13T00:48:02.747Z,79.84
2023-02-13T00:49:02.729Z,79.84
2023-02-13T00:50:02.709Z,79.94
2023-02-13T00:51:02.699Z,79.55
2023-02-13T00:52:02.675Z,79.94
2023-02-13T00:53:02.661Z,79.84
2023-02-13T00:54:02.639Z,79.84
2023-02-13T00:55:02.634Z,79.94
2023-02-13T00:56:02.620Z,79.94
2023-02-13T00:57:02.591Z,79.55
2023-02-13T00:58:02.597Z,79.65
2023-02-13T00:59:02.553Z,80.03
2023-02-13T01:00:02.557Z,79.84
2023-02-13T01:01:02.527Z,79.84
2023-02-13T01:02:02.498Z,79.74
2023-02-13T01:03:02.483Z,80.03
2023-02-13T01:04:02.541Z,80.22
2023-02-13T01:05:02.455Z,80.32
2023-02-13T01:06:02.429Z,80.22
2023-02-13T01:07:02.420Z,80.32
2023-02-13T01:08:02.403Z,80.41
2023-02-13T01:09:02.387Z,80.22
2023-02-13T01:10:02.381Z,80.27
2023-02-13T01:11:02.350Z,80.18
2023-02-13T01:12:02.335Z,80.84
2023-02-13T01:13:02.314Z,80.37
2023-02-13T01:14:02.296Z,80.46
2023-02-13T01:15:02.298Z,80.75
2023-02-13T01:16:02.312Z,81.04
2023-02-13T01:17:02.242Z,80.90
2023-02-13T01:18:02.228Z,81.37
2023-02-13T01:19:02.207Z,81.09
2023-02-13T01:20:02.196Z,81.27
2023-02-13T01:21:02.183Z,81.47
2023-02-13T01:22:02.161Z,81.85
2023-02-13T01:23:02.141Z,81.94
2023-02-13T01:24:02.126Z,81.75
2023-02-13T01:25:02.107Z,81.56
2023-02-13T01:26:02.087Z,81.47
2023-02-13T01:27:02.067Z,81.37
2023-02-13T01:28:02.092Z,82.13
2023-02-13T01:29:02.033Z,81.37
2023-02-13T01:30:02.066Z,81.47
2023-02-13T01:31:02.655Z,81.56
2023-02-13T01:32:02.027Z,81.18
2023-02-13T01:33:01.962Z,81.94
2023-02-13T01:34:01.952Z,81.71
2023-02-13T01:35:01.924Z,82.09
2023-02-13T01:36:01.913Z,81.99
2023-02-13T01:37:01.906Z,81.71
2023-02-13T01:38:01.926Z,81.71
2023-02-13T01:39:01.863Z,82.47
2023-02-13T01:40:01.836Z,82.47
2023-02-13T01:41:01.819Z,81.81
2023-02-13T01:42:01.796Z,81.99
2023-02-13T01:43:01.800Z,81.90
2023-02-13T01:44:01.776Z,81.90
2023-02-13T01:45:01.751Z,82.09
2023-02-13T01:46:01.726Z,82.18
2023-02-13T01:47:01.704Z,82.56
2023-02-13T01:48:01.703Z,82.47
2023-02-13T01:49:01.668Z,82.28
2023-02-13T01:50:01.677Z,82.94
2023-02-13T01:51:01.636Z,82.56
2023-02-13T01:52:01.614Z,82.62
2023-02-13T01:53:01.592Z,82.94
2023-02-13T01:54:01.581Z,82.71
2023-02-13T01:55:01.563Z,83.00
2023-02-13T01:56:01.545Z,83.00
2023-02-13T01:57:01.524Z,83.09
2023-02-13T01:58:01.508Z,83.18
2023-02-13T01:59:01.506Z,83.00
2023-02-13T02:00:01.478Z,83.00
2023-02-13T02:01:01.448Z,83.18
2023-02-13T02:02:01.510Z,83.47
2023-02-13T02:03:01.413Z,83.37
2023-02-13T02:04:01.397Z,83.28
2023-02-13T02:05:01.383Z,83.28
2023-02-13T02:06:01.356Z,83.85
2023-02-13T02:07:01.342Z,83.66
2023-02-13T02:08:01.328Z,83.75
2023-02-13T02:09:01.306Z,83.52
2023-02-13T02:10:01.284Z,83.81
2023-02-13T02:11:01.268Z,83.62
2023-02-13T02:12:01.250Z,83.52
2023-02-13T02:13:01.231Z,83.14
2023-02-13T02:14:01.219Z,83.43
2023-02-13T02:15:01.204Z,83.62
2023-02-13T02:16:01.238Z,83.33
2023-02-13T02:17:01.157Z,83.90
2023-02-13T02:18:01.145Z,83.52
2023-02-13T02:19:01.126Z,83.43
2023-02-13T02:20:01.160Z,83.33
2023-02-13T02:21:01.088Z,83.29
2023-02-13T02:22:01.073Z,83.52
2023-02-13T02:23:01.066Z,83.39
2023-02-13T02:24:01.038Z,83.48
2023-02-13T02:25:01.066Z,83.67
2023-02-13T02:26:01.001Z,83.86
2023-02-13T02:27:00.992Z,83.48
2023-02-13T02:28:00.990Z,83.58
2023-02-13T02:29:00.942Z,83.76
2023-02-13T02:30:00.937Z,83.67
2023-02-13T02:31:01.223Z,83.67
2023-02-13T02:32:00.890Z,83.29
2023-02-13T02:33:00.868Z,83.39
2023-02-13T02:34:00.862Z,83.48
2023-02-13T02:35:00.839Z,83.48
2023-02-13T02:36:00.813Z,83.48
2023-02-13T02:37:00.794Z,83.39
2023-02-13T02:38:00.774Z,83.58
2023-02-13T02:39:00.756Z,83.58
2023-02-13T02:40:00.754Z,83.48
2023-02-13T02:41:00.728Z,83.48
2023-02-13T02:42:00.709Z,83.58
2023-02-13T02:43:00.680Z,83.67
2023-02-13T02:44:00.665Z,83.58
2023-02-13T02:45:00.650Z,83.29
2023-02-13T02:46:00.630Z,82.91
2023-02-13T02:47:00.631Z,83.06
2023-02-13T02:48:00.595Z,82.87
2023-02-13T02:49:00.568Z,83.34
2023-02-13T02:50:00.588Z,83.06
2023-02-13T02:51:00.528Z,82.87
2023-02-13T02:52:00.531Z,82.87
2023-02-13T02:53:00.487Z,82.87
2023-02-13T02:54:00.474Z,82.97
2023-02-13T02:55:00.450Z,82.87
2023-02-13T02:56:00.435Z,83.44
2023-02-13T02:57:00.412Z,83.25
2023-02-13T02:58:00.394Z,83.72
2023-02-13T02:59:00.373Z,83.72
2023-02-13T03:00:00.378Z,83.72
2023-02-13T03:01:00.701Z,83.44
2023-02-13T03:02:00.329Z,83.34
2023-02-13T03:03:00.298Z,83.44
2023-02-13T03:04:00.370Z,83.15
2023-02-13T03:05:00.260Z,83.44
2023-02-13T03:06:00.242Z,83.44
2023-02-13T03:07:00.262Z,83.34
2023-02-13T03:08:00.199Z,83.63
2023-02-13T03:09:00.179Z,83.53
2023-02-13T03:10:00.222Z,83.44
2023-02-13T03:11:00.378Z,83.21
2023-02-13T03:12:00.125Z,83.44
2023-02-13T03:13:00.124Z,83.82
2023-02-13T03:14:00.105Z,83.44
2023-02-13T03:15:00.062Z,83.53
2023-02-13T03:16:00.117Z,83.40
2023-02-13T03:17:00.025Z,83.21
2023-02-13T03:18:00.008Z,83.40
2023-02-13T03:18:59.989Z,83.40
2023-02-13T03:20:00.011Z,83.30
2023-02-13T03:21:00.198Z,83.30
2023-02-13T03:21:59.932Z,83.68
2023-02-13T03:22:59.908Z,83.40
2023-02-13T03:23:59.891Z,83.87
2023-02-13T03:24:59.875Z,83.40
2023-02-13T03:25:59.851Z,83.40
2023-02-13T03:26:59.832Z,83.49
2023-02-13T03:27:59.860Z,83.49
2023-02-13T03:28:59.795Z,83.11
2023-02-13T03:29:59.870Z,83.30
2023-02-13T03:31:00.349Z,83.30
2023-02-13T03:31:59.777Z,83.78
2023-02-13T03:32:59.718Z,83.30
2023-02-13T03:33:59.711Z,83.40
2023-02-13T03:34:59.679Z,83.30
2023-02-13T03:35:59.662Z,83.02
2023-02-13T03:36:59.637Z,83.02
2023-02-13T03:37:59.616Z,83.40
2023-02-13T03:38:59.599Z,83.40
2023-02-13T03:39:59.644Z,83.11
2023-02-13T03:40:59.556Z,83.21
2023-02-13T03:41:59.542Z,83.02
2023-02-13T03:42:59.513Z,83.78
2023-02-13T03:43:59.497Z,83.40
2023-02-13T03:44:59.477Z,83.59
2023-02-13T03:45:59.482Z,83.40
2023-02-13T03:46:59.443Z,83.87
2023-02-13T03:47:59.424Z,83.68
2023-02-13T03:48:59.406Z,83.78
2023-02-13T03:49:59.387Z,83.68
2023-02-13T03:50:59.361Z,83.40
2023-02-13T03:51:59.347Z,83.40
2023-02-13T03:52:59.320Z,83.78
2023-02-13T03:53:59.297Z,83.59
2023-02-13T03:54:59.278Z,83.78
2023-02-13T03:55:59.264Z,83.59
2023-02-13T03:56:59.238Z,83.59
2023-02-13T03:57:59.221Z,84.06
2023-02-13T03:58:59.202Z,84.06
2023-02-13T03:59:59.182Z,84.16
2023-02-13T04:00:59.579Z,84.06
2023-02-13T04:01:59.158Z,83.97
2023-02-13T04:02:59.124Z,83.97
2023-02-13T04:03:59.117Z,83.78
2023-02-13T04:04:59.086Z,83.59
2023-02-13T04:05:59.064Z,84.06
2023-02-13T04:06:59.052Z,83.78
2023-02-13T04:07:59.035Z,83.78
2023-02-13T04:08:58.999Z,83.78
2023-02-13T04:09:58.985Z,83.59
2023-02-13T04:10:59.404Z,83.59
2023-02-13T04:11:58.942Z,84.06
2023-02-13T04:12:58.928Z,83.87
2023-02-13T04:13:58.925Z,84.06
2023-02-13T04:14:58.879Z,84.06
2023-02-13T04:15:58.864Z,84.06
2023-02-13T04:16:59.010Z,84.16
2023-02-13T04:17:58.824Z,83.78
2023-02-13T04:18:58.795Z,83.68
2023-02-13T04:19:58.786Z,83.87
2023-02-13T04:20:59.067Z,84.53
2023-02-13T04:21:58.764Z,84.34
2023-02-13T04:22:58.719Z,84.16
2023-02-13T04:23:58.818Z,84.16
2023-02-13T04:24:58.726Z,84.44
2023-02-13T04:25:58.697Z,84.44
2023-02-13T04:26:58.656Z,84.34
2023-02-13T04:27:58.626Z,84.34
2023-02-13T04:28:58.600Z,84.25
2023-02-13T04:29:58.628Z,84.25
2023-02-13T04:30:59.013Z,83.78
2023-02-13T04:31:58.600Z,84.44
2023-02-13T04:32:58.544Z,84.34
2023-02-13T04:33:58.556Z,84.16
2023-02-13T04:34:58.486Z,84.16
2023-02-13T04:35:58.462Z,84.16
2023-02-13T04:36:58.440Z,84.16
2023-02-13T04:37:58.425Z,84.63
2023-02-13T04:38:58.411Z,84.63
2023-02-13T04:39:58.402Z,84.53
2023-02-13T04:40:58.741Z,84.72
2023-02-13T04:41:58.346Z,84.53
2023-02-13T04:42:58.357Z,84.81
2023-02-13T04:43:58.313Z,84.63
2023-02-13T04:44:58.289Z,84.63
2023-02-13T04:45:58.272Z,84.16
2023-02-13T04:46:58.255Z,84.25
2023-02-13T04:47:58.234Z,84.34
2023-02-13T04:51:14.971Z,84.20
2023-02-13T04:52:14.494Z,84.16
2023-02-13T04:53:14.455Z,84.20
2023-02-13T04:54:14.401Z,84.11
2023-02-13T04:55:14.383Z,84.63
2023-02-13T04:56:14.358Z,84.63
2023-02-13T04:57:15.339Z,84.44
2023-02-13T04:58:14.406Z,84.53
2023-02-13T04:59:14.414Z,84.63
2023-02-13T05:00:14.333Z,84.63
2023-02-13T05:01:14.316Z,84.63
2023-02-13T05:02:14.235Z,84.30
2023-02-13T05:03:14.313Z,84.39
2023-02-13T05:04:14.254Z,84.68
2023-02-13T05:05:14.176Z,84.58
2023-02-13T05:06:14.391Z,84.77
2023-02-13T05:07:14.143Z,84.96
2023-02-13T05:08:14.122Z,84.68
2023-02-13T05:09:14.108Z,85.05
2023-02-13T05:10:14.086Z,84.77
2023-02-13T05:11:14.067Z,84.86
2023-02-13T05:12:14.041Z,84.49
2023-02-13T05:13:14.037Z,84.30
2023-02-13T05:14:14.003Z,84.86
2023-02-13T05:15:13.991Z,84.68
2023-02-13T05:16:14.000Z,84.68
2023-02-13T05:17:13.936Z,84.77
2023-02-13T05:18:13.915Z,84.77
2023-02-13T05:19:13.910Z,84.77
2023-02-13T05:20:13.926Z,84.68
2023-02-13T05:21:13.865Z,85.43
2023-02-13T05:22:13.841Z,84.86
2023-02-13T05:23:13.825Z,84.68
2023-02-13T05:24:13.797Z,84.68
2023-02-13T05:25:13.782Z,85.34
2023-02-13T05:26:13.758Z,85.05
2023-02-13T05:27:13.755Z,84.77
2023-02-13T05:28:13.747Z,84.77
2023-02-13T05:29:13.700Z,84.86
2023-02-13T05:30:13.673Z,84.68
2023-02-13T05:31:13.812Z,84.77
2023-02-13T05:32:13.729Z,84.68
2023-02-13T05:33:13.663Z,84.77
2023-02-13T05:34:13.593Z,84.86
2023-02-13T05:35:13.596Z,84.86
2023-02-13T05:36:13.562Z,84.77
2023-02-13T05:37:13.578Z,84.58
2023-02-13T05:38:13.531Z,85.43
2023-02-13T05:39:13.499Z,85.15
2023-02-13T05:40:13.473Z,85.43
2023-02-13T05:41:13.492Z,85.34
2023-02-13T05:42:13.454Z,84.77
2023-02-13T05:43:13.427Z,84.68
2023-02-13T05:44:13.400Z,85.05
2023-02-13T05:45:13.381Z,85.15
2023-02-13T05:46:13.439Z,85.43
2023-02-13T05:47:13.346Z,84.86
2023-02-13T05:48:13.321Z,84.68
2023-02-13T05:49:13.304Z,84.58
2023-02-13T05:50:13.299Z,84.68
2023-02-13T05:51:13.262Z,84.86
2023-02-13T05:52:13.257Z,84.77
2023-02-13T05:53:13.225Z,84.58
2023-02-13T05:54:13.245Z,84.68
2023-02-13T05:55:13.178Z,84.68
2023-02-13T05:56:13.166Z,84.86
2023-02-13T05:57:13.136Z,84.68
2023-02-13T05:58:13.115Z,85.05
2023-02-13T05:59:13.099Z,84.86
2023-02-13T06:00:13.072Z,84.86
2023-02-13T06:01:13.057Z,85.24
2023-02-13T06:02:13.029Z,85.15
2023-02-13T06:03:13.012Z,85.24
2023-02-13T06:04:13.044Z,85.15
2023-02-13T06:05:12.976Z,85.15
2023-02-13T06:06:12.948Z,85.34
2023-02-13T06:07:12.933Z,85.15
2023-02-13T06:08:12.915Z,85.43
2023-02-13T06:09:12.886Z,85.34
2023-02-13T06:10:12.867Z,85.24
2023-02-13T06:11:12.912Z,84.96
2023-02-13T06:12:12.833Z,85.15
2023-02-13T06:13:12.804Z,85.15
2023-02-13T06:14:12.791Z,85.15
2023-02-13T06:15:12.772Z,85.15
2023-02-13T06:16:12.824Z,85.05
2023-02-13T06:17:12.722Z,85.53
2023-02-13T06:18:12.727Z,85.24
2023-02-13T06:19:12.682Z,85.43
2023-02-13T06:20:12.663Z,85.15
2023-02-13T06:21:12.677Z,85.05
2023-02-13T06:22:12.639Z,85.34
2023-02-13T06:23:12.606Z,85.34
2023-02-13T06:24:12.582Z,85.24
2023-02-13T06:25:12.561Z,85.34
2023-02-13T06:26:12.539Z,85.15
2023-02-13T06:27:12.525Z,85.34
2023-02-13T06:28:12.587Z,85.24
2023-02-13T06:29:12.478Z,85.05
2023-02-13T06:30:12.476Z,85.15
2023-02-13T06:31:12.657Z,85.05
2023-02-13T06:32:12.425Z,85.24
2023-02-13T06:33:12.411Z,85.62
2023-02-13T06:34:12.378Z,85.05
2023-02-13T06:35:12.365Z,85.24
2023-02-13T06:36:12.344Z,85.05
2023-02-13T06:37:12.325Z,85.43
2023-02-13T06:38:12.298Z,85.24
2023-02-13T06:39:12.274Z,85.15
2023-02-13T06:40:12.265Z,85.24
2023-02-13T06:41:12.237Z,85.34
2023-02-13T06:42:12.216Z,84.96
2023-02-13T06:43:12.193Z,84.39
2023-02-13T06:44:12.180Z,84.68
2023-02-13T06:45:12.153Z,84.86
2023-02-13T06:46:12.212Z,84.77
2023-02-13T06:47:12.122Z,84.86
2023-02-13T06:48:12.094Z,84.86
2023-02-13T06:49:12.072Z,84.77
2023-02-13T06:50:12.063Z,84.58
2023-02-13T06:51:12.033Z,84.39
2023-02-13T06:52:12.038Z,84.68
2023-02-13T06:53:11.993Z,84.68
2023-02-13T06:54:11.981Z,84.49
2023-02-13T06:55:11.955Z,85.15
2023-02-13T06:56:11.928Z,85.15
2023-02-13T06:57:11.909Z,85.34
2023-02-13T06:58:11.886Z,85.24
2023-02-13T06:59:11.882Z,85.24
2023-02-13T07:00:11.851Z,85.15
2023-02-13T07:01:11.874Z,85.05
2023-02-13T07:02:11.852Z,85.15
2023-02-13T07:03:11.874Z,85.05
2023-02-13T07:04:11.767Z,85.15
2023-02-13T07:05:11.811Z,84.77
2023-02-13T07:06:11.728Z,84.77
2023-02-13T07:07:11.764Z,84.77
2023-02-13T07:08:11.689Z,84.68
2023-02-13T07:09:11.665Z,84.86
2023-02-13T07:10:11.650Z,84.81
2023-02-13T07:11:11.628Z,84.63
2023-02-13T07:12:11.602Z,84.91
2023-02-13T07:13:11.584Z,84.63
2023-02-13T07:14:11.574Z,84.72
2023-02-13T07:15:11.544Z,84.63
2023-02-13T07:16:11.560Z,84.34
2023-02-13T07:17:11.498Z,84.72
2023-02-13T07:18:11.493Z,84.53
2023-02-13T07:19:11.466Z,84.72
2023-02-13T07:20:11.443Z,84.72
2023-02-13T07:21:19.800Z,84.81
2023-02-13T07:23:19.239Z,85.00
2023-02-13T07:24:18.830Z,84.91
2023-02-13T07:25:19.251Z,84.81
2023-02-13T07:26:19.125Z,84.63
2023-02-13T07:27:18.544Z,84.44
2023-02-13T07:28:19.268Z,84.91
2023-02-13T07:29:19.206Z,84.91
2023-02-13T07:30:19.171Z,84.53
2023-02-13T07:31:18.703Z,85.10
2023-02-13T07:32:18.608Z,84.91
2023-02-13T07:33:18.261Z,84.63
2023-02-13T07:34:18.161Z,84.91
2023-02-13T07:35:18.273Z,84.81
2023-02-13T07:36:19.048Z,85.10
2023-02-13T07:37:18.959Z,84.91
2023-02-13T07:38:18.033Z,85.28
2023-02-13T07:39:18.018Z,84.72
2023-02-13T07:40:17.990Z,84.48
2023-02-13T07:41:17.994Z,84.48
2023-02-13T07:42:17.956Z,84.95
2023-02-13T07:43:17.933Z,84.77
2023-02-13T07:44:17.911Z,85.09
2023-02-13T07:45:17.909Z,84.71
2023-02-13T07:46:17.940Z,84.23
2023-02-13T07:47:20.084Z,84.33
2023-02-13T07:48:17.840Z,84.42
2023-02-13T07:49:17.812Z,84.71
2023-02-13T07:50:17.830Z,85.04
2023-02-13T07:51:17.777Z,84.94
2023-02-13T07:52:17.786Z,85.42
2023-02-13T07:53:17.738Z,85.23
2023-02-13T07:54:17.717Z,85.65
2023-02-13T07:55:17.696Z,85.55
2023-02-13T07:56:17.688Z,85.55
2023-02-13T07:57:17.691Z,84.99
2023-02-13T07:58:17.661Z,84.80
2023-02-13T07:59:17.620Z,84.74
2023-02-13T08:00:17.600Z,84.84
2023-02-13T08:01:17.600Z,84.55
2023-02-13T08:02:17.571Z,84.55
2023-02-13T08:03:17.544Z,84.46
2023-02-13T08:04:17.526Z,84.69
2023-02-13T08:05:17.520Z,84.88
2023-02-13T08:06:17.496Z,84.88
2023-02-13T08:07:17.474Z,84.88
2023-02-13T08:08:17.462Z,84.88
2023-02-13T08:09:17.431Z,85.07
2023-02-13T08:10:17.413Z,85.02
2023-02-13T08:11:17.398Z,85.30
2023-02-13T08:12:17.373Z,84.83
2023-02-13T08:13:17.359Z,85.02
2023-02-13T08:14:17.350Z,85.87
2023-02-13T08:15:17.318Z,85.25
2023-02-13T08:16:17.355Z,85.91
2023-02-13T08:17:17.284Z,85.53
2023-02-13T08:18:19.018Z,85.44
2023-02-13T08:19:17.254Z,85.25
2023-02-13T08:20:17.231Z,84.63
2023-02-13T08:21:17.210Z,85.11
2023-02-13T08:22:17.322Z,84.91
2023-02-13T08:23:17.245Z,84.63
2023-02-13T08:24:17.164Z,84.91
2023-02-13T08:25:17.143Z,84.58
2023-02-13T08:26:17.156Z,84.86
2023-02-13T08:27:17.110Z,84.86
2023-02-13T08:28:17.145Z,84.85
2023-02-13T08:29:17.073Z,83.36
2023-02-13T08:30:17.057Z,78.81
2023-02-13T08:31:17.205Z,73.19
2023-02-13T08:32:17.272Z,70.46
2023-02-13T08:33:17.013Z,69.85
2023-02-13T08:34:17.017Z,71.15
2023-02-13T08:35:16.978Z,73.50
2023-02-13T08:36:16.968Z,74.74
2023-02-13T08:37:16.948Z,77.67
2023-02-13T08:38:16.963Z,79.96
2023-02-13T08:39:16.919Z,81.10
2023-02-13T08:40:16.904Z,83.96
2023-02-13T08:42:16.897Z,86.58
2023-02-13T08:43:16.858Z,86.38
2023-02-13T08:44:16.840Z,84.55
2023-02-13T08:45:16.826Z,79.80
2023-02-13T08:46:16.883Z,74.39
2023-02-13T08:47:16.837Z,68.73
2023-02-13T08:48:16.845Z,66.42
2023-02-13T08:49:16.781Z,66.30
2023-02-13T08:50:16.777Z,67.67
2023-02-13T08:51:16.744Z,69.42
2023-02-13T08:52:16.740Z,72.23
2023-02-13T08:53:16.721Z,74.20
2023-02-13T08:54:16.715Z,75.45
2023-02-13T08:55:16.693Z,77.70
2023-02-13T08:56:16.685Z,80.00
2023-02-13T08:57:16.672Z,82.53
2023-02-13T08:58:16.658Z,83.68
2023-02-13T08:59:16.652Z,84.20
2023-02-13T09:00:16.641Z,83.33
2023-02-13T09:01:16.733Z,80.32
2023-02-13T09:02:16.633Z,75.61
2023-02-13T09:03:16.664Z,68.98
2023-02-13T09:04:16.594Z,62.59
2023-02-13T09:05:16.586Z,57.83
2023-02-13T09:06:16.570Z,55.63
2023-02-13T09:07:16.565Z,55.47
2023-02-13T09:08:17.898Z,57.62
2023-02-13T09:09:16.545Z,60.41
2023-02-13T09:10:16.546Z,64.37
2023-02-13T09:11:16.541Z,68.07
2023-02-13T09:12:16.518Z,71.28
2023-02-13T09:13:16.510Z,74.51
2023-02-13T09:14:16.507Z,77.65
2023-02-13T09:15:16.501Z,80.87
2023-02-13T09:16:16.527Z,82.06
2023-02-13T09:17:16.479Z,82.05
2023-02-13T09:18:16.476Z,79.12
2023-02-13T09:19:16.465Z,73.73
2023-02-13T09:20:16.480Z,67.54
2023-02-13T09:21:16.445Z,60.78
2023-02-13T09:22:16.440Z,56.22
2023-02-13T09:23:16.433Z,53.25
2023-02-13T09:24:16.433Z,51.05
2023-02-13T09:25:16.424Z,50.12
2023-02-13T09:26:16.431Z,51.68
2023-02-13T09:27:16.411Z,54.76
2023-02-13T09:28:16.443Z,59.19
2023-02-13T09:29:16.401Z,62.40
2023-02-13T09:30:16.399Z,65.40
2023-02-13T09:31:16.489Z,68.10
2023-02-13T09:32:16.454Z,70.58
2023-02-13T09:33:16.375Z,73.21
2023-02-13T09:34:16.371Z,75.49
2023-02-13T09:35:16.362Z,77.51
2023-02-13T09:36:16.361Z,77.98
2023-02-13T09:37:16.351Z,75.87
2023-02-13T09:38:16.343Z,72.57
2023-02-13T09:39:16.340Z,65.98
2023-02-13T09:40:16.344Z,59.42
2023-02-13T09:41:17.358Z,54.69
2023-02-13T09:42:16.337Z,51.44
2023-02-13T09:43:16.322Z,50.24
2023-02-13T09:44:16.319Z,51.31
2023-02-13T09:45:16.301Z,54.21
2023-02-13T09:46:16.337Z,58.05
2023-02-13T09:47:16.314Z,60.68
2023-02-13T09:48:16.289Z,63.18
2023-02-13T09:49:16.281Z,65.72
2023-02-13T09:50:16.317Z,67.49
2023-02-13T09:51:16.292Z,68.81
2023-02-13T09:52:16.261Z,70.51
2023-02-13T09:53:16.258Z,72.63
2023-02-13T09:54:16.267Z,73.11
2023-02-13T09:55:16.261Z,72.92
2023-02-13T09:56:16.240Z,72.38
2023-02-13T09:57:16.240Z,71.52
2023-02-13T09:58:16.305Z,68.08
2023-02-13T09:59:16.229Z,62.42
2023-02-13T10:00:16.248Z,57.32
2023-02-13T10:01:16.234Z,53.36
2023-02-13T10:02:16.204Z,52.53
2023-02-13T10:03:16.203Z,54.56
2023-02-13T10:04:16.193Z,57.39
2023-02-13T10:05:16.202Z,58.85
2023-02-13T10:06:16.185Z,61.11
2023-02-13T10:07:16.178Z,63.31
2023-02-13T10:08:16.174Z,64.82
2023-02-13T10:09:16.168Z,64.79
2023-02-13T10:10:16.180Z,66.11
2023-02-13T10:11:16.157Z,67.36
2023-02-13T10:12:16.153Z,68.33
2023-02-13T10:13:16.155Z,68.87
2023-02-13T10:14:16.152Z,69.00
2023-02-13T10:15:16.142Z,68.71
2023-02-13T10:16:16.193Z,68.01
2023-02-13T10:17:16.184Z,65.72
2023-02-13T10:18:16.125Z,61.78
2023-02-13T10:19:16.120Z,57.75
2023-02-13T10:20:16.117Z,53.75
2023-02-13T10:21:16.110Z,52.36
2023-02-13T10:22:16.109Z,52.69
2023-02-13T10:23:16.103Z,54.66
2023-02-13T10:24:16.097Z,57.36
2023-02-13T10:25:16.107Z,59.46
2023-02-13T10:26:16.089Z,59.98
2023-02-13T10:27:16.088Z,61.33
2023-02-13T10:28:16.094Z,62.08
2023-02-13T10:29:16.077Z,62.92
2023-02-13T10:30:16.091Z,64.08
2023-02-13T10:31:16.190Z,64.85
2023-02-13T10:32:16.257Z,66.40
2023-02-13T10:33:16.060Z,66.63
2023-02-13T10:34:16.059Z,66.56
2023-02-13T10:35:16.064Z,66.05
2023-02-13T10:36:16.056Z,63.36
2023-02-13T10:37:16.055Z,59.14
2023-02-13T10:38:16.047Z,55.02
2023-02-13T10:39:16.041Z,51.15
2023-02-13T10:40:16.029Z,48.41
2023-02-13T10:41:16.034Z,48.34
2023-02-13T10:42:16.033Z,50.21
2023-02-13T10:43:16.028Z,52.67
2023-02-13T10:44:16.020Z,54.32
2023-02-13T10:45:16.022Z,56.76
2023-02-13T10:46:16.071Z,59.06
2023-02-13T10:47:16.019Z,59.49
2023-02-13T10:48:16.008Z,61.40
2023-02-13T10:49:16.014Z,62.37
2023-02-13T10:50:16.007Z,62.98
2023-02-13T10:51:16.011Z,63.72
2023-02-13T10:52:15.998Z,64.20
2023-02-13T10:53:15.995Z,64.01
2023-02-13T10:54:15.987Z,63.78
2023-02-13T10:55:15.992Z,63.01
2023-02-13T10:56:15.981Z,59.56
2023-02-13T10:57:15.984Z,54.79
2023-02-13T10:58:15.997Z,50.12
2023-02-13T10:59:16.024Z,48.11
2023-02-13T11:00:15.968Z,47.60
2023-02-13T11:01:15.984Z,49.09
2023-02-13T11:02:15.970Z,51.24
2023-02-13T11:03:15.963Z,52.48
2023-02-13T11:04:15.976Z,54.09
2023-02-13T11:05:15.977Z,55.52
2023-02-13T11:06:15.975Z,56.47
2023-02-13T11:07:15.957Z,57.22
2023-02-13T11:08:15.947Z,57.90
2023-02-13T11:09:15.947Z,58.56
2023-02-13T11:10:15.948Z,58.78
2023-02-13T11:11:15.941Z,59.46
2023-02-13T11:12:15.967Z,59.10
2023-02-13T11:13:15.944Z,58.58
2023-02-13T11:14:15.944Z,57.17
2023-02-13T11:15:15.938Z,53.66
2023-02-13T11:16:15.974Z,50.20
2023-02-13T11:17:15.930Z,46.91
2023-02-13T11:18:18.284Z,46.39
2023-02-13T11:19:15.933Z,47.97
2023-02-13T11:20:15.938Z,49.73
2023-02-13T11:21:15.927Z,52.09
2023-02-13T11:22:16.013Z,53.41
2023-02-13T11:23:15.924Z,54.91
2023-02-13T11:24:15.916Z,56.03
2023-02-13T11:25:15.919Z,57.00
2023-02-13T11:26:15.921Z,57.00
2023-02-13T11:27:15.918Z,57.78
2023-02-13T11:28:15.947Z,57.65
2023-02-13T11:29:15.909Z,58.62
2023-02-13T11:30:15.993Z,58.53
2023-02-13T11:31:16.002Z,58.07
2023-02-13T11:32:16.059Z,57.01
2023-02-13T11:33:15.904Z,52.59
2023-02-13T11:34:15.909Z,48.99
2023-02-13T11:35:15.904Z,46.24
2023-02-13T11:36:15.904Z,45.53
2023-02-13T11:37:15.897Z,46.47
2023-02-13T11:38:15.893Z,47.87
2023-02-13T11:39:15.899Z,49.63
2023-02-13T11:40:15.970Z,51.34
2023-02-13T11:41:15.911Z,52.39
2023-02-13T11:42:15.888Z,53.41
2023-02-13T11:43:15.892Z,53.77
2023-02-13T11:44:15.888Z,54.03
2023-02-13T11:45:15.891Z,54.91
2023-02-13T11:46:17.046Z,55.57
2023-02-13T11:47:15.882Z,56.45
2023-02-13T11:48:15.903Z,56.96
2023-02-13T11:49:15.920Z,55.55
2023-02-13T11:50:15.927Z,53.22
2023-02-13T11:51:15.883Z,49.63
2023-02-13T11:52:15.891Z,46.49
2023-02-13T11:53:15.883Z,45.47
2023-02-13T11:54:15.904Z,45.91
2023-02-13T11:55:15.895Z,47.41
2023-02-13T11:56:15.891Z,49.10
2023-02-13T11:57:15.874Z,50.99
2023-02-13T11:58:16.156Z,51.75
2023-02-13T11:59:15.879Z,52.38
2023-02-13T12:00:15.884Z,53.52
2023-02-13T12:01:15.869Z,53.89
2023-02-13T12:02:15.896Z,55.15
2023-02-13T12:03:15.952Z,55.03
2023-02-13T12:04:15.867Z,55.41
2023-02-13T12:05:15.871Z,55.74
2023-02-13T12:06:15.913Z,54.33
2023-02-13T12:07:15.872Z,52.09
2023-02-13T12:08:15.859Z,48.97
2023-02-13T12:09:15.943Z,46.40
2023-02-13T12:10:15.861Z,46.11
2023-02-13T12:11:15.874Z,46.65
2023-02-13T12:12:15.855Z,47.56
2023-02-13T12:13:15.856Z,49.05
2023-02-13T12:14:15.847Z,49.95
2023-02-13T12:15:15.859Z,51.67
2023-02-13T12:16:15.867Z,52.53
2023-02-13T12:17:29.116Z,53.08
2023-02-13T12:18:15.840Z,52.89
2023-02-13T12:19:15.845Z,52.89
2023-02-13T12:20:15.828Z,53.06
2023-02-13T12:21:15.853Z,53.93
2023-02-13T12:22:15.831Z,53.18
2023-02-13T12:23:15.821Z,51.70
2023-02-13T12:24:15.822Z,49.39
2023-02-13T12:25:15.820Z,48.32
2023-02-13T12:26:15.809Z,48.19
2023-02-13T12:27:15.808Z,49.49
2023-02-13T12:28:15.844Z,50.60
2023-02-13T12:29:15.838Z,51.72
2023-02-13T12:30:15.784Z,51.96
2023-02-13T12:31:15.846Z,53.09
2023-02-13T12:32:15.777Z,53.63
2023-02-13T12:33:15.780Z,54.57
2023-02-13T12:34:15.770Z,55.31
2023-02-13T12:35:15.757Z,56.05
2023-02-13T12:36:15.763Z,56.61
2023-02-13T12:37:15.747Z,57.21
2023-02-13T12:38:15.751Z,56.18
2023-02-13T12:39:15.733Z,54.49
2023-02-13T12:40:15.772Z,52.46
2023-02-13T12:41:15.724Z,52.27
2023-02-13T12:42:15.713Z,52.44
2023-02-13T12:43:15.716Z,53.09
2023-02-13T12:44:15.704Z,53.64
2023-02-13T12:45:15.702Z,54.19
2023-02-13T12:46:15.768Z,54.39
2023-02-13T12:47:15.691Z,54.84
2023-02-13T12:48:15.692Z,55.10
2023-02-13T12:49:15.682Z,55.27
2023-02-13T12:50:15.665Z,56.01
2023-02-13T12:51:15.653Z,56.88
2023-02-13T12:52:15.649Z,56.79
2023-02-13T12:53:15.644Z,55.66
2023-02-13T12:54:15.647Z,54.50
2023-02-13T12:55:15.634Z,53.92
2023-02-13T12:56:15.634Z,53.83